sensor_id;sensor_type;location;lat;lon;timestamp;temperature;humidity
8664;DHT22;4369;47.842;13.096;2023-07-29T00:01:09;17.50;99.90
8664;DHT22;4369;47.842;13.096;2023-07-29T00:03:36;17.60;99.90
8664;DHT22;4369;47.842;13.096;2023-07-29T00:06:03;17.50;99.90
8664;DHT22;4369;47.842;13.096;2023-07-29T00:08:31;17.50;99.90
8664;DHT22;4369;47.842;13.096;2023-07-29T00:10:58;17.50;99.90
8664;DHT22;4369;47.842;13.096;2023-07-29T00:13:25;17.40;99.90
8664;DHT22;4369;47.842;13.096;2023-07-29T00:15:53;17.40;99.90
8664;DHT22;4369;47.842;13.096;2023-07-29T00:18:20;17.40;99.90
8664;DHT22;4369;47.842;13.096;2023-07-29T00:20:47;17.30;99.90
8664;DHT22;4369;47.842;13.096;2023-07-29T00:23:13;17.30;99.90
8664;DHT22;4369;47.842;13.096;2023-07-29T00:25:42;17.40;99.90
8664;DHT22;4369;47.842;13.096;2023-07-29T00:28:09;17.30;99.90
8664;DHT22;4369;47.842;13.096;2023-07-29T00:30:35;17.30;99.90
8664;DHT22;4369;47.842;13.096;2023-07-29T00:33:02;17.30;99.90
8664;DHT22;4369;47.842;13.096;2023-07-29T00:35:29;17.20;99.90
8664;DHT22;4369;47.842;13.096;2023-07-29T00:37:56;17.20;99.90
8664;DHT22;4369;47.842;13.096;2023-07-29T00:40:23;17.20;99.90
8664;DHT22;4369;47.842;13.096;2023-07-29T00:42:51;17.20;99.90
8664;DHT22;4369;47.842;13.096;2023-07-29T00:45:18;17.20;99.90
8664;DHT22;4369;47.842;13.096;2023-07-29T00:47:45;17.20;99.90
8664;DHT22;4369;47.842;13.096;2023-07-29T00:50:13;17.10;99.90
8664;DHT22;4369;47.842;13.096;2023-07-29T00:52:41;17.10;99.90
8664;DHT22;4369;47.842;13.096;2023-07-29T00:55:08;17.10;99.90
8664;DHT22;4369;47.842;13.096;2023-07-29T00:57:35;17.10;99.90
8664;DHT22;4369;47.842;13.096;2023-07-29T01:00:05;17.10;99.90
8664;DHT22;4369;47.842;13.096;2023-07-29T01:02:32;17.10;99.90
8664;DHT22;4369;47.842;13.096;2023-07-29T01:05:00;17.10;99.90
8664;DHT22;4369;47.842;13.096;2023-07-29T01:07:30;17.00;99.90
8664;DHT22;4369;47.842;13.096;2023-07-29T01:10:01;17.00;99.90
8664;DHT22;4369;47.842;13.096;2023-07-29T01:12:36;17.00;99.90
8664;DHT22;4369;47.842;13.096;2023-07-29T01:15:11;17.10;99.90
8664;DHT22;4369;47.842;13.096;2023-07-29T01:17:42;17.20;99.90
8664;DHT22;4369;47.842;13.096;2023-07-29T01:20:14;17.20;99.90
8664;DHT22;4369;47.842;13.096;2023-07-29T01:22:41;17.40;99.90
8664;DHT22;4369;47.842;13.096;2023-07-29T01:25:10;17.40;99.90
8664;DHT22;4369;47.842;13.096;2023-07-29T01:27:37;17.40;99.90
8664;DHT22;4369;47.842;13.096;2023-07-29T01:30:05;17.40;99.90
8664;DHT22;4369;47.842;13.096;2023-07-29T01:32:36;17.50;99.90
8664;DHT22;4369;47.842;13.096;2023-07-29T01:35:13;17.40;99.90
8664;DHT22;4369;47.842;13.096;2023-07-29T01:37:42;17.50;99.90
8664;DHT22;4369;47.842;13.096;2023-07-29T01:40:13;17.50;99.90
8664;DHT22;4369;47.842;13.096;2023-07-29T01:42:40;17.50;99.90
8664;DHT22;4369;47.842;13.096;2023-07-29T01:45:07;17.50;99.90
8664;DHT22;4369;47.842;13.096;2023-07-29T01:47:34;17.50;99.90
8664;DHT22;4369;47.842;13.096;2023-07-29T01:50:02;17.60;99.90
8664;DHT22;4369;47.842;13.096;2023-07-29T01:52:29;17.60;99.90
8664;DHT22;4369;47.842;13.096;2023-07-29T01:54:56;17.60;99.90
8664;DHT22;4369;47.842;13.096;2023-07-29T01:57:24;17.60;99.90
8664;DHT22;4369;47.842;13.096;2023-07-29T01:59:51;17.60;99.90
8664;DHT22;4369;47.842;13.096;2023-07-29T02:02:18;17.60;99.90
8664;DHT22;4369;47.842;13.096;2023-07-29T02:04:44;17.50;99.90
8664;DHT22;4369;47.842;13.096;2023-07-29T02:07:16;17.50;99.90
8664;DHT22;4369;47.842;13.096;2023-07-29T02:09:43;17.40;99.90
8664;DHT22;4369;47.842;13.096;2023-07-29T02:12:10;17.40;99.90
8664;DHT22;4369;47.842;13.096;2023-07-29T02:14:38;17.40;99.90
8664;DHT22;4369;47.842;13.096;2023-07-29T02:17:05;17.40;99.90
8664;DHT22;4369;47.842;13.096;2023-07-29T02:19:32;17.40;99.90
8664;DHT22;4369;47.842;13.096;2023-07-29T02:21:59;17.40;99.90
8664;DHT22;4369;47.842;13.096;2023-07-29T02:24:26;17.40;99.90
8664;DHT22;4369;47.842;13.096;2023-07-29T02:26:53;17.40;99.90
8664;DHT22;4369;47.842;13.096;2023-07-29T02:29:20;17.40;99.90
8664;DHT22;4369;47.842;13.096;2023-07-29T02:31:48;17.40;99.90
8664;DHT22;4369;47.842;13.096;2023-07-29T02:34:15;17.40;99.90
8664;DHT22;4369;47.842;13.096;2023-07-29T02:36:42;17.40;99.90
8664;DHT22;4369;47.842;13.096;2023-07-29T02:39:09;17.40;99.90
8664;DHT22;4369;47.842;13.096;2023-07-29T02:41:35;17.40;99.90
8664;DHT22;4369;47.842;13.096;2023-07-29T02:44:02;17.40;99.90
8664;DHT22;4369;47.842;13.096;2023-07-29T02:46:29;17.40;99.90
8664;DHT22;4369;47.842;13.096;2023-07-29T02:48:57;17.30;99.90
8664;DHT22;4369;47.842;13.096;2023-07-29T02:51:24;17.20;99.90
8664;DHT22;4369;47.842;13.096;2023-07-29T02:53:51;17.20;99.90
8664;DHT22;4369;47.842;13.096;2023-07-29T02:56:18;17.10;99.90
8664;DHT22;4369;47.842;13.096;2023-07-29T02:58:45;17.10;99.90
8664;DHT22;4369;47.842;13.096;2023-07-29T03:01:12;17.00;99.90
8664;DHT22;4369;47.842;13.096;2023-07-29T03:03:39;17.00;99.90
8664;DHT22;4369;47.842;13.096;2023-07-29T03:06:08;17.00;99.90
8664;DHT22;4369;47.842;13.096;2023-07-29T03:08:35;17.00;99.90
8664;DHT22;4369;47.842;13.096;2023-07-29T03:11:05;17.00;99.90
8664;DHT22;4369;47.842;13.096;2023-07-29T03:13:32;16.90;99.90
8664;DHT22;4369;47.842;13.096;2023-07-29T03:16:05;16.90;99.90
8664;DHT22;4369;47.842;13.096;2023-07-29T03:18:32;16.80;99.90
8664;DHT22;4369;47.842;13.096;2023-07-29T03:20:58;16.80;99.90
8664;DHT22;4369;47.842;13.096;2023-07-29T03:23:27;16.70;99.90
8664;DHT22;4369;47.842;13.096;2023-07-29T03:25:55;16.70;99.90
8664;DHT22;4369;47.842;13.096;2023-07-29T03:28:23;16.70;99.90
8664;DHT22;4369;47.842;13.096;2023-07-29T03:30:50;16.60;99.90
8664;DHT22;4369;47.842;13.096;2023-07-29T03:33:17;16.60;99.90
8664;DHT22;4369;47.842;13.096;2023-07-29T03:35:44;16.60;99.90
8664;DHT22;4369;47.842;13.096;2023-07-29T03:38:11;16.60;99.90
8664;DHT22;4369;47.842;13.096;2023-07-29T03:40:40;16.50;99.90
8664;DHT22;4369;47.842;13.096;2023-07-29T03:43:07;16.50;99.90
8664;DHT22;4369;47.842;13.096;2023-07-29T03:48:54;16.50;99.90
8664;DHT22;4369;47.842;13.096;2023-07-29T03:51:21;16.50;99.90
8664;DHT22;4369;47.842;13.096;2023-07-29T03:53:48;16.50;99.90
8664;DHT22;4369;47.842;13.096;2023-07-29T03:56:16;16.50;99.90
8664;DHT22;4369;47.842;13.096;2023-07-29T03:58:43;16.50;99.90
8664;DHT22;4369;47.842;13.096;2023-07-29T04:01:10;16.50;99.90
8664;DHT22;4369;47.842;13.096;2023-07-29T04:03:37;16.50;99.90
8664;DHT22;4369;47.842;13.096;2023-07-29T04:06:04;16.50;99.90
8664;DHT22;4369;47.842;13.096;2023-07-29T04:08:30;16.50;99.90
8664;DHT22;4369;47.842;13.096;2023-07-29T04:10:57;16.40;99.90
8664;DHT22;4369;47.842;13.096;2023-07-29T04:13:26;16.50;99.90
8664;DHT22;4369;47.842;13.096;2023-07-29T04:15:52;16.50;99.90
8664;DHT22;4369;47.842;13.096;2023-07-29T04:18:19;16.60;99.90
8664;DHT22;4369;47.842;13.096;2023-07-29T04:20:46;16.60;99.90
8664;DHT22;4369;47.842;13.096;2023-07-29T04:23:13;16.60;99.90
8664;DHT22;4369;47.842;13.096;2023-07-29T04:25:40;16.70;99.90
8664;DHT22;4369;47.842;13.096;2023-07-29T04:28:07;16.70;99.90
8664;DHT22;4369;47.842;13.096;2023-07-29T04:30:35;16.70;99.90
8664;DHT22;4369;47.842;13.096;2023-07-29T04:33:02;16.80;99.90
8664;DHT22;4369;47.842;13.096;2023-07-29T04:35:29;16.80;99.90
8664;DHT22;4369;47.842;13.096;2023-07-29T04:37:55;16.80;99.90
8664;DHT22;4369;47.842;13.096;2023-07-29T04:40:22;16.90;99.90
8664;DHT22;4369;47.842;13.096;2023-07-29T04:42:50;16.90;99.90
8664;DHT22;4369;47.842;13.096;2023-07-29T04:45:19;17.00;99.90
8664;DHT22;4369;47.842;13.096;2023-07-29T04:47:47;17.10;99.90
8664;DHT22;4369;47.842;13.096;2023-07-29T04:50:14;17.20;99.90
8664;DHT22;4369;47.842;13.096;2023-07-29T04:52:41;17.30;99.90
8664;DHT22;4369;47.842;13.096;2023-07-29T04:55:08;17.30;99.90
8664;DHT22;4369;47.842;13.096;2023-07-29T04:57:35;17.40;99.90
8664;DHT22;4369;47.842;13.096;2023-07-29T05:00:03;17.50;99.90
8664;DHT22;4369;47.842;13.096;2023-07-29T05:02:30;17.60;99.90
8664;DHT22;4369;47.842;13.096;2023-07-29T05:04:58;17.70;99.90
8664;DHT22;4369;47.842;13.096;2023-07-29T05:07:25;17.80;99.90
8664;DHT22;4369;47.842;13.096;2023-07-29T05:09:51;17.80;99.90
8664;DHT22;4369;47.842;13.096;2023-07-29T05:12:18;17.90;99.90
8664;DHT22;4369;47.842;13.096;2023-07-29T05:14:45;17.90;99.90
8664;DHT22;4369;47.842;13.096;2023-07-29T05:17:13;18.00;99.90
8664;DHT22;4369;47.842;13.096;2023-07-29T05:19:40;18.00;99.90
8664;DHT22;4369;47.842;13.096;2023-07-29T05:22:09;18.00;99.90
8664;DHT22;4369;47.842;13.096;2023-07-29T05:24:36;18.10;99.90
8664;DHT22;4369;47.842;13.096;2023-07-29T05:27:03;18.10;99.90
8664;DHT22;4369;47.842;13.096;2023-07-29T05:29:30;18.20;99.90
8664;DHT22;4369;47.842;13.096;2023-07-29T05:31:56;18.30;99.90
8664;DHT22;4369;47.842;13.096;2023-07-29T05:34:23;18.30;99.90
8664;DHT22;4369;47.842;13.096;2023-07-29T05:36:50;18.30;99.90
8664;DHT22;4369;47.842;13.096;2023-07-29T05:39:18;18.30;99.90
8664;DHT22;4369;47.842;13.096;2023-07-29T05:41:45;18.30;99.90
8664;DHT22;4369;47.842;13.096;2023-07-29T05:44:12;18.40;99.90
8664;DHT22;4369;47.842;13.096;2023-07-29T05:46:39;18.50;99.90
8664;DHT22;4369;47.842;13.096;2023-07-29T05:49:06;18.70;99.90
8664;DHT22;4369;47.842;13.096;2023-07-29T05:51:33;18.80;99.90
8664;DHT22;4369;47.842;13.096;2023-07-29T05:54:00;19.00;99.90
8664;DHT22;4369;47.842;13.096;2023-07-29T05:56:28;19.10;99.90
8664;DHT22;4369;47.842;13.096;2023-07-29T05:58:55;19.20;99.90
8664;DHT22;4369;47.842;13.096;2023-07-29T06:01:22;19.40;99.90
8664;DHT22;4369;47.842;13.096;2023-07-29T06:03:49;19.50;99.90
8664;DHT22;4369;47.842;13.096;2023-07-29T06:06:16;19.60;99.90
8664;DHT22;4369;47.842;13.096;2023-07-29T06:08:43;19.70;99.90
8664;DHT22;4369;47.842;13.096;2023-07-29T06:11:09;19.70;99.90
8664;DHT22;4369;47.842;13.096;2023-07-29T06:13:38;19.70;99.90
8664;DHT22;4369;47.842;13.096;2023-07-29T06:16:04;19.80;99.90
8664;DHT22;4369;47.842;13.096;2023-07-29T06:18:31;20.00;99.90
8664;DHT22;4369;47.842;13.096;2023-07-29T06:20:58;20.00;99.90
8664;DHT22;4369;47.842;13.096;2023-07-29T06:23:25;20.00;99.90
8664;DHT22;4369;47.842;13.096;2023-07-29T06:25:52;20.00;99.90
8664;DHT22;4369;47.842;13.096;2023-07-29T06:28:19;19.90;99.90
8664;DHT22;4369;47.842;13.096;2023-07-29T06:30:47;19.90;99.90
8664;DHT22;4369;47.842;13.096;2023-07-29T06:33:14;19.90;99.90
8664;DHT22;4369;47.842;13.096;2023-07-29T06:35:41;20.00;99.90
8664;DHT22;4369;47.842;13.096;2023-07-29T06:38:08;20.10;99.90
8664;DHT22;4369;47.842;13.096;2023-07-29T06:40:35;20.30;99.90
8664;DHT22;4369;47.842;13.096;2023-07-29T06:43:02;20.50;99.90
8664;DHT22;4369;47.842;13.096;2023-07-29T06:45:29;20.50;99.90
8664;DHT22;4369;47.842;13.096;2023-07-29T06:47:57;20.50;99.90
8664;DHT22;4369;47.842;13.096;2023-07-29T06:50:24;20.50;99.90
8664;DHT22;4369;47.842;13.096;2023-07-29T06:52:50;20.70;99.90
8664;DHT22;4369;47.842;13.096;2023-07-29T06:55:17;20.80;99.90
8664;DHT22;4369;47.842;13.096;2023-07-29T06:57:44;20.90;99.90
8664;DHT22;4369;47.842;13.096;2023-07-29T07:00:11;20.90;99.90
8664;DHT22;4369;47.842;13.096;2023-07-29T07:02:38;20.80;99.90
8664;DHT22;4369;47.842;13.096;2023-07-29T07:05:07;20.70;99.90
8664;DHT22;4369;47.842;13.096;2023-07-29T07:07:33;20.70;99.90
8664;DHT22;4369;47.842;13.096;2023-07-29T07:10:01;20.60;99.90
8664;DHT22;4369;47.842;13.096;2023-07-29T07:12:28;20.50;99.90
8664;DHT22;4369;47.842;13.096;2023-07-29T07:14:54;20.40;99.90
8664;DHT22;4369;47.842;13.096;2023-07-29T07:17:21;20.50;99.90
8664;DHT22;4369;47.842;13.096;2023-07-29T07:19:48;20.50;99.90
8664;DHT22;4369;47.842;13.096;2023-07-29T07:22:17;20.60;99.90
8664;DHT22;4369;47.842;13.096;2023-07-29T07:24:44;20.80;99.90
8664;DHT22;4369;47.842;13.096;2023-07-29T07:27:11;21.00;99.90
8664;DHT22;4369;47.842;13.096;2023-07-29T07:29:37;21.20;99.90
8664;DHT22;4369;47.842;13.096;2023-07-29T07:32:05;21.50;99.90
8664;DHT22;4369;47.842;13.096;2023-07-29T07:34:32;21.90;99.90
8664;DHT22;4369;47.842;13.096;2023-07-29T07:37:00;22.10;99.90
8664;DHT22;4369;47.842;13.096;2023-07-29T07:39:28;22.30;76.70
8664;DHT22;4369;47.842;13.096;2023-07-29T07:41:55;22.30;99.90
8664;DHT22;4369;47.842;13.096;2023-07-29T07:44:22;22.50;99.90
8664;DHT22;4369;47.842;13.096;2023-07-29T07:46:52;22.60;99.90
8664;DHT22;4369;47.842;13.096;2023-07-29T07:49:19;22.80;54.50
8664;DHT22;4369;47.842;13.096;2023-07-29T07:51:45;23.00;40.80
8664;DHT22;4369;47.842;13.096;2023-07-29T07:54:12;23.10;29.20
8664;DHT22;4369;47.842;13.096;2023-07-29T07:56:40;23.10;24.90
8664;DHT22;4369;47.842;13.096;2023-07-29T07:59:07;23.00;26.00
8664;DHT22;4369;47.842;13.096;2023-07-29T08:01:35;22.90;6.10
8664;DHT22;4369;47.842;13.096;2023-07-29T08:04:02;22.80;99.90
8664;DHT22;4369;47.842;13.096;2023-07-29T08:06:29;22.80;1.00
8664;DHT22;4369;47.842;13.096;2023-07-29T08:08:56;22.90;1.00
8664;DHT22;4369;47.842;13.096;2023-07-29T08:11:24;23.10;1.00
8664;DHT22;4369;47.842;13.096;2023-07-29T08:13:52;23.30;99.90
8664;DHT22;4369;47.842;13.096;2023-07-29T08:16:19;23.30;65.30
8664;DHT22;4369;47.842;13.096;2023-07-29T08:18:46;23.30;99.90
8664;DHT22;4369;47.842;13.096;2023-07-29T08:21:13;23.20;1.00
8664;DHT22;4369;47.842;13.096;2023-07-29T08:23:40;23.00;1.00
8664;DHT22;4369;47.842;13.096;2023-07-29T08:26:07;22.70;1.00
8664;DHT22;4369;47.842;13.096;2023-07-29T08:28:35;22.60;1.00
8664;DHT22;4369;47.842;13.096;2023-07-29T08:31:03;22.60;19.20
8664;DHT22;4369;47.842;13.096;2023-07-29T08:33:31;22.60;1.00
8664;DHT22;4369;47.842;13.096;2023-07-29T08:35:59;22.50;13.10
8664;DHT22;4369;47.842;13.096;2023-07-29T08:38:26;22.50;35.20
8664;DHT22;4369;47.842;13.096;2023-07-29T08:40:57;22.60;1.00
8664;DHT22;4369;47.842;13.096;2023-07-29T08:43:29;22.70;12.90
8664;DHT22;4369;47.842;13.096;2023-07-29T08:45:57;22.50;11.70
8664;DHT22;4369;47.842;13.096;2023-07-29T08:48:32;22.40;28.30
8664;DHT22;4369;47.842;13.096;2023-07-29T08:51:01;22.40;25.10
8664;DHT22;4369;47.842;13.096;2023-07-29T08:53:30;22.30;99.90
8664;DHT22;4369;47.842;13.096;2023-07-29T08:55:58;22.20;99.90
8664;DHT22;4369;47.842;13.096;2023-07-29T08:58:25;22.10;99.90
8664;DHT22;4369;47.842;13.096;2023-07-29T09:00:53;22.00;99.90
8664;DHT22;4369;47.842;13.096;2023-07-29T09:03:20;21.90;1.00
8664;DHT22;4369;47.842;13.096;2023-07-29T09:05:48;21.80;99.90
8664;DHT22;4369;47.842;13.096;2023-07-29T09:08:15;21.90;99.90
8664;DHT22;4369;47.842;13.096;2023-07-29T09:10:42;21.90;1.00
8664;DHT22;4369;47.842;13.096;2023-07-29T09:13:09;22.00;1.00
8664;DHT22;4369;47.842;13.096;2023-07-29T09:15:37;22.10;99.90
8664;DHT22;4369;47.842;13.096;2023-07-29T09:18:11;22.10;1.00
8664;DHT22;4369;47.842;13.096;2023-07-29T09:20:39;22.20;99.90
8664;DHT22;4369;47.842;13.096;2023-07-29T09:23:09;22.20;99.90
8664;DHT22;4369;47.842;13.096;2023-07-29T09:25:37;22.30;1.00
8664;DHT22;4369;47.842;13.096;2023-07-29T09:28:08;22.30;99.90
8664;DHT22;4369;47.842;13.096;2023-07-29T09:30:37;22.30;99.90
8664;DHT22;4369;47.842;13.096;2023-07-29T09:33:04;22.40;1.00
8664;DHT22;4369;47.842;13.096;2023-07-29T09:35:33;22.30;1.00
8664;DHT22;4369;47.842;13.096;2023-07-29T09:38:00;22.30;1.00
8664;DHT22;4369;47.842;13.096;2023-07-29T09:40:34;22.30;99.90
8664;DHT22;4369;47.842;13.096;2023-07-29T09:43:02;22.50;26.50
8664;DHT22;4369;47.842;13.096;2023-07-29T09:45:29;22.60;1.00
8664;DHT22;4369;47.842;13.096;2023-07-29T09:47:57;22.90;1.00
8664;DHT22;4369;47.842;13.096;2023-07-29T09:50:25;23.00;3.20
8664;DHT22;4369;47.842;13.096;2023-07-29T09:52:53;23.10;15.10
8664;DHT22;4369;47.842;13.096;2023-07-29T09:55:21;23.30;99.90
8664;DHT22;4369;47.842;13.096;2023-07-29T09:57:53;23.40;1.00
8664;DHT22;4369;47.842;13.096;2023-07-29T10:00:20;23.70;99.90
8664;DHT22;4369;47.842;13.096;2023-07-29T10:02:48;23.60;1.00
8664;DHT22;4369;47.842;13.096;2023-07-29T10:05:15;23.70;1.00
8664;DHT22;4369;47.842;13.096;2023-07-29T10:07:42;23.70;1.00
8664;DHT22;4369;47.842;13.096;2023-07-29T10:10:10;23.70;1.00
8664;DHT22;4369;47.842;13.096;2023-07-29T10:12:39;23.90;13.20
8664;DHT22;4369;47.842;13.096;2023-07-29T10:15:10;24.10;1.00
8664;DHT22;4369;47.842;13.096;2023-07-29T10:17:38;24.10;1.00
8664;DHT22;4369;47.842;13.096;2023-07-29T10:20:06;24.10;75.40
8664;DHT22;4369;47.842;13.096;2023-07-29T10:22:37;24.00;58.30
8664;DHT22;4369;47.842;13.096;2023-07-29T10:25:07;23.90;4.60
8664;DHT22;4369;47.842;13.096;2023-07-29T10:27:42;23.60;1.00
8664;DHT22;4369;47.842;13.096;2023-07-29T10:30:12;23.40;72.60
8664;DHT22;4369;47.842;13.096;2023-07-29T10:32:42;23.40;99.90
8664;DHT22;4369;47.842;13.096;2023-07-29T10:35:10;23.50;99.90
8664;DHT22;4369;47.842;13.096;2023-07-29T10:37:38;23.60;99.90
8664;DHT22;4369;47.842;13.096;2023-07-29T10:40:07;23.60;99.90
8664;DHT22;4369;47.842;13.096;2023-07-29T10:42:34;23.80;1.00
8664;DHT22;4369;47.842;13.096;2023-07-29T10:45:18;23.90;1.00
8664;DHT22;4369;47.842;13.096;2023-07-29T10:47:46;23.90;1.00
8664;DHT22;4369;47.842;13.096;2023-07-29T10:50:18;23.90;99.90
8664;DHT22;4369;47.842;13.096;2023-07-29T10:52:49;24.00;1.00
8664;DHT22;4369;47.842;13.096;2023-07-29T10:55:25;24.20;1.00
8664;DHT22;4369;47.842;13.096;2023-07-29T10:57:52;24.30;1.00
8664;DHT22;4369;47.842;13.096;2023-07-29T11:00:31;24.60;99.90
8664;DHT22;4369;47.842;13.096;2023-07-29T11:03:00;24.90;99.90
8664;DHT22;4369;47.842;13.096;2023-07-29T11:05:41;25.10;89.90
8664;DHT22;4369;47.842;13.096;2023-07-29T11:08:27;25.10;1.00
8664;DHT22;4369;47.842;13.096;2023-07-29T11:11:07;25.40;1.00
8664;DHT22;4369;47.842;13.096;2023-07-29T11:13:36;25.90;1.00
8664;DHT22;4369;47.842;13.096;2023-07-29T11:16:05;26.20;1.00
8664;DHT22;4369;47.842;13.096;2023-07-29T11:18:33;26.20;1.00
8664;DHT22;4369;47.842;13.096;2023-07-29T11:21:01;26.00;1.00
8664;DHT22;4369;47.842;13.096;2023-07-29T11:23:30;26.20;1.00
8664;DHT22;4369;47.842;13.096;2023-07-29T11:25:57;26.40;1.00
8664;DHT22;4369;47.842;13.096;2023-07-29T11:28:25;26.60;1.00
8664;DHT22;4369;47.842;13.096;2023-07-29T11:30:53;26.70;1.00
8664;DHT22;4369;47.842;13.096;2023-07-29T11:33:23;26.70;1.00
8664;DHT22;4369;47.842;13.096;2023-07-29T11:35:50;27.00;1.00
8664;DHT22;4369;47.842;13.096;2023-07-29T11:38:18;26.90;1.00
8664;DHT22;4369;47.842;13.096;2023-07-29T11:40:54;27.00;1.00
8664;DHT22;4369;47.842;13.096;2023-07-29T11:43:21;26.90;1.00
8664;DHT22;4369;47.842;13.096;2023-07-29T11:45:48;27.00;1.00
8664;DHT22;4369;47.842;13.096;2023-07-29T11:48:15;26.80;1.00
8664;DHT22;4369;47.842;13.096;2023-07-29T11:50:44;26.70;1.00
8664;DHT22;4369;47.842;13.096;2023-07-29T11:53:12;26.50;1.00
8664;DHT22;4369;47.842;13.096;2023-07-29T11:55:39;26.60;1.00
8664;DHT22;4369;47.842;13.096;2023-07-29T11:58:06;26.50;1.00
8664;DHT22;4369;47.842;13.096;2023-07-29T12:00:33;26.50;1.00
8664;DHT22;4369;47.842;13.096;2023-07-29T12:03:01;26.90;1.00
8664;DHT22;4369;47.842;13.096;2023-07-29T12:05:28;27.40;1.00
8664;DHT22;4369;47.842;13.096;2023-07-29T12:07:57;27.70;1.00
8664;DHT22;4369;47.842;13.096;2023-07-29T12:10:25;28.30;1.00
8664;DHT22;4369;47.842;13.096;2023-07-29T12:12:52;28.60;1.00
8664;DHT22;4369;47.842;13.096;2023-07-29T12:15:26;28.90;1.00
8664;DHT22;4369;47.842;13.096;2023-07-29T12:17:55;28.80;1.00
8664;DHT22;4369;47.842;13.096;2023-07-29T12:20:23;28.70;1.00
8664;DHT22;4369;47.842;13.096;2023-07-29T12:22:53;28.90;1.00
8664;DHT22;4369;47.842;13.096;2023-07-29T12:25:22;28.80;1.00
8664;DHT22;4369;47.842;13.096;2023-07-29T12:27:50;29.00;1.00
8664;DHT22;4369;47.842;13.096;2023-07-29T12:30:20;28.90;1.00
8664;DHT22;4369;47.842;13.096;2023-07-29T12:32:47;28.90;1.00
8664;DHT22;4369;47.842;13.096;2023-07-29T12:35:15;29.00;1.00
8664;DHT22;4369;47.842;13.096;2023-07-29T12:37:42;29.00;1.00
8664;DHT22;4369;47.842;13.096;2023-07-29T12:40:22;28.90;1.00
8664;DHT22;4369;47.842;13.096;2023-07-29T12:42:50;28.40;1.00
8664;DHT22;4369;47.842;13.096;2023-07-29T12:45:17;28.70;1.00
8664;DHT22;4369;47.842;13.096;2023-07-29T12:47:44;28.90;1.00
8664;DHT22;4369;47.842;13.096;2023-07-29T12:50:11;28.50;1.00
8664;DHT22;4369;47.842;13.096;2023-07-29T12:52:38;28.50;1.00
8664;DHT22;4369;47.842;13.096;2023-07-29T12:55:06;28.80;1.00
8664;DHT22;4369;47.842;13.096;2023-07-29T12:57:40;28.80;1.00
8664;DHT22;4369;47.842;13.096;2023-07-29T13:00:08;28.50;1.00
8664;DHT22;4369;47.842;13.096;2023-07-29T13:02:36;28.30;1.00
8664;DHT22;4369;47.842;13.096;2023-07-29T13:05:03;28.20;1.00
8664;DHT22;4369;47.842;13.096;2023-07-29T13:07:30;27.80;1.00
8664;DHT22;4369;47.842;13.096;2023-07-29T13:09:57;27.70;1.00
8664;DHT22;4369;47.842;13.096;2023-07-29T13:12:24;27.40;1.00
8664;DHT22;4369;47.842;13.096;2023-07-29T13:14:52;27.30;1.00
8664;DHT22;4369;47.842;13.096;2023-07-29T13:17:19;27.40;1.00
8664;DHT22;4369;47.842;13.096;2023-07-29T13:19:47;27.50;1.00
8664;DHT22;4369;47.842;13.096;2023-07-29T13:22:14;27.90;1.00
8664;DHT22;4369;47.842;13.096;2023-07-29T13:24:41;28.50;1.00
8664;DHT22;4369;47.842;13.096;2023-07-29T13:27:08;28.90;1.00
8664;DHT22;4369;47.842;13.096;2023-07-29T13:29:34;29.20;1.00
8664;DHT22;4369;47.842;13.096;2023-07-29T13:32:03;29.50;1.00
8664;DHT22;4369;47.842;13.096;2023-07-29T13:34:30;29.60;1.00
8664;DHT22;4369;47.842;13.096;2023-07-29T13:36:57;29.90;1.00
8664;DHT22;4369;47.842;13.096;2023-07-29T13:39:24;30.30;1.00
8664;DHT22;4369;47.842;13.096;2023-07-29T13:41:51;30.50;1.00
8664;DHT22;4369;47.842;13.096;2023-07-29T13:44:17;31.00;1.00
8664;DHT22;4369;47.842;13.096;2023-07-29T13:46:44;32.00;1.00
8664;DHT22;4369;47.842;13.096;2023-07-29T13:49:13;32.00;1.00
8664;DHT22;4369;47.842;13.096;2023-07-29T13:51:39;31.50;1.00
8664;DHT22;4369;47.842;13.096;2023-07-29T13:54:08;31.50;1.00
8664;DHT22;4369;47.842;13.096;2023-07-29T13:56:35;31.70;1.00
8664;DHT22;4369;47.842;13.096;2023-07-29T13:59:03;32.70;1.00
8664;DHT22;4369;47.842;13.096;2023-07-29T14:01:29;34.40;1.00
8664;DHT22;4369;47.842;13.096;2023-07-29T14:03:56;33.80;1.00
8664;DHT22;4369;47.842;13.096;2023-07-29T14:06:24;34.80;1.00
8664;DHT22;4369;47.842;13.096;2023-07-29T14:08:51;36.10;1.00
8664;DHT22;4369;47.842;13.096;2023-07-29T14:11:18;37.40;1.00
8664;DHT22;4369;47.842;13.096;2023-07-29T14:13:45;36.90;1.00
8664;DHT22;4369;47.842;13.096;2023-07-29T14:16:12;38.00;1.00
8664;DHT22;4369;47.842;13.096;2023-07-29T14:18:39;41.00;1.00
8664;DHT22;4369;47.842;13.096;2023-07-29T14:21:05;42.20;1.00
8664;DHT22;4369;47.842;13.096;2023-07-29T14:23:34;42.00;1.00
8664;DHT22;4369;47.842;13.096;2023-07-29T14:26:00;42.30;1.00
8664;DHT22;4369;47.842;13.096;2023-07-29T14:28:27;41.50;1.00
8664;DHT22;4369;47.842;13.096;2023-07-29T14:30:55;39.20;1.00
8664;DHT22;4369;47.842;13.096;2023-07-29T14:33:22;37.60;1.00
8664;DHT22;4369;47.842;13.096;2023-07-29T14:35:49;35.70;1.00
8664;DHT22;4369;47.842;13.096;2023-07-29T14:38:16;34.50;1.00
8664;DHT22;4369;47.842;13.096;2023-07-29T14:40:44;33.20;1.00
8664;DHT22;4369;47.842;13.096;2023-07-29T14:43:11;32.20;1.00
8664;DHT22;4369;47.842;13.096;2023-07-29T14:45:37;31.10;1.00
8664;DHT22;4369;47.842;13.096;2023-07-29T14:48:04;30.40;1.00
8664;DHT22;4369;47.842;13.096;2023-07-29T14:50:31;30.00;1.00
8664;DHT22;4369;47.842;13.096;2023-07-29T14:53:00;29.50;1.00
8664;DHT22;4369;47.842;13.096;2023-07-29T14:55:27;29.10;1.00
8664;DHT22;4369;47.842;13.096;2023-07-29T14:57:55;28.70;1.00
8664;DHT22;4369;47.842;13.096;2023-07-29T15:00:22;28.50;1.00
8664;DHT22;4369;47.842;13.096;2023-07-29T15:02:49;28.00;1.00
8664;DHT22;4369;47.842;13.096;2023-07-29T15:05:16;27.50;1.00
8664;DHT22;4369;47.842;13.096;2023-07-29T15:07:43;27.10;1.00
8664;DHT22;4369;47.842;13.096;2023-07-29T15:10:10;26.80;1.00
8664;DHT22;4369;47.842;13.096;2023-07-29T15:12:37;26.50;1.00
8664;DHT22;4369;47.842;13.096;2023-07-29T15:15:07;26.00;1.00
8664;DHT22;4369;47.842;13.096;2023-07-29T15:17:34;25.20;1.00
8664;DHT22;4369;47.842;13.096;2023-07-29T15:20:01;24.70;1.00
8664;DHT22;4369;47.842;13.096;2023-07-29T15:22:28;24.20;3.10
8664;DHT22;4369;47.842;13.096;2023-07-29T15:24:57;23.30;99.90
8664;DHT22;4369;47.842;13.096;2023-07-29T15:27:24;22.70;1.00
8664;DHT22;4369;47.842;13.096;2023-07-29T15:29:51;22.60;1.00
8664;DHT22;4369;47.842;13.096;2023-07-29T15:32:19;22.50;99.90
8664;DHT22;4369;47.842;13.096;2023-07-29T15:34:47;22.40;99.90
8664;DHT22;4369;47.842;13.096;2023-07-29T15:37:14;22.20;99.90
8664;DHT22;4369;47.842;13.096;2023-07-29T15:39:41;22.00;1.00
8664;DHT22;4369;47.842;13.096;2023-07-29T15:42:09;22.00;99.90
8664;DHT22;4369;47.842;13.096;2023-07-29T15:44:36;21.90;1.00
8664;DHT22;4369;47.842;13.096;2023-07-29T15:47:03;21.70;1.00
8664;DHT22;4369;47.842;13.096;2023-07-29T15:49:31;21.70;1.00
8664;DHT22;4369;47.842;13.096;2023-07-29T15:51:58;21.60;1.00
8664;DHT22;4369;47.842;13.096;2023-07-29T15:54:25;21.60;25.70
8664;DHT22;4369;47.842;13.096;2023-07-29T15:56:52;21.50;85.30
8664;DHT22;4369;47.842;13.096;2023-07-29T15:59:19;21.40;99.90